LiveATC.Net - Listen to live air traffic control over the Internet!


ICAO: KTAN  IATA: TAN   Airport: Taunton Municipal Airport
City: Taunton   State/Province: Massachusetts
Country: United States   Continent: North America
KTAN METAR Weather: KTAN 121652Z AUTO 00000KT 10SM CLR M01/M10 A3069 RMK AO2 SLP394 T10111100
KTAN Flight Activity (FlightAware)
KTAN Airport Info   (iFlightPlanner)
KTAN VFR Sectional Chart   (iFlightPlanner) 
KTAN IFR Low Chart   (iFlightPlanner) 

KTAN CTAF
Feed Status: UP   Listeners: 0
Listen in your browser - HTML5 player (in browser, HTML5)
Click here to listen with your own player (launches your MP3 player)
Archive Access: KTAN CTAF
FacilityFrequency
Taunton CTAF122.700

NOTICE

Unauthorized use prohibited. See LiveATC.net Terms of Service


Airport/ARTCC Code
Frequency Search
(e.g., 124.400, 128.75)
Site-wide search
 


Browse Feeds
Top 50 Feeds
Coverage Map
Bad Weather Areas

LiveATC FAQ
Offer LiveATC feed
Contact LiveATC.net
Press Inquiries

LiveATC on iPhone
LiveATC on Android

Windows Phone
Windows 8/10

LiveATC Mobile
(Mobile browser)

ATC Audio Archives
Interesting Recordings

LiveATC Forums


Home Page
About LiveATC.net
Make a Donation
Terms of Use
Privacy Policy

Canadian Air Freqs

AIRMETs/SIGMETs

FAA Airport Status
Nat'l Airspace Status
Arrival Demand Charts


Server Software By:
Icecast.org
Liquidsoap